Tropical Cyclones
[Index]
Main Index Home Page Stock Weather Photos Extreme Storms Discussion Storm News and Storm Chasing Reports Tropical Cyclones / Hurricanes / Typhoons Weather Data and Links Wild Fires / Bushfires Weather Observation Techniques Weather Picture Catalogue Tornado Pictures and Reports Stock Video Footage and DVDs for sale
Season 1971-1972 Tropical Cyclone HANNAH Track Map
Season 1971-1972 Summaries: [BoM-AU] [JTWC-AU] [JTWC-SIO] [JTWC-SPAC] [JTWC-SH]
<<- Previous TC | BoM 1971-1972 Season | Next TC ->>

click for intensity scale information  Lat/long Grid: Show Hide

 Date Labels: Show Hide

Bureau of Meteorology Tropical Cyclone Data

Name: HANNAH
Number: 497 / 197172_19

07 May 1972 23:00 UTC to 11 May 1972 14:00 UTC

    date/time    lat    long    hPa   cat  kts
1972-05-07 23    5.7   155.5   1004                     
1972-05-08 02    6.1   155.2   1002                     
1972-05-08 05    6.4   154.8   1001                     
1972-05-08 08    6.6   154.4    999                     
1972-05-08 11    6.8   153.9    997                     
1972-05-08 14    7.1   153.5    995    1                
1972-05-08 17    7.3   153.1    991    1                
1972-05-08 20    7.4   152.6    988    1                
1972-05-08 23    7.4   152.1    984    2                
1972-05-09 02    7.3   151.6    981    2                
1972-05-09 05    7.2   151.2    978    2                
1972-05-09 08    7.1   150.7    976    2                
1972-05-09 11    6.8   150.3    974    2                
1972-05-09 14    6.7   149.9    973    2                
1972-05-09 17    6.5   149.6    972    2                
1972-05-09 20    6.4   149.5    972    2                
1972-05-09 23    6.5   149.3    971    2                
1972-05-10 06    7.2   149.3    970    3                
1972-05-10 11    7.9   149.2    970    3                
1972-05-10 23    9.1   149.2    970    3                
1972-05-11 11   10.0   150.0    995    1                
1972-05-11 14   10.2   150.4   1000                     
Winds are 10-min average.

Tropical cyclone tracks developed by Michael Bath using data from the Bureau of Meteorology and Google Maps.


[Australian Severe Weather index] [Copyright Notice] [Email Contacts] [Search This Site] [Privacy Policy]
Document: tropical_cyclone_hannah.htm Updated: 30 May 2013